createdAt,value
2023-03-24T00:01:54.246Z,0.40
2023-03-24T00:06:59.168Z,0.60
2023-03-24T00:12:02.495Z,0.40
2023-03-24T00:17:06.159Z,0.40
2023-03-24T00:22:14.288Z,0.60
2023-03-24T00:27:18.742Z,0.57
2023-03-24T00:32:22.306Z,0.77
2023-03-24T00:37:27.483Z,0.70
2023-03-24T00:42:33.617Z,0.50
2023-03-24T00:47:38.085Z,0.70
2023-03-24T00:52:44.314Z,0.70
2023-03-24T00:57:50.623Z,0.73
2023-03-24T01:02:56.125Z,0.70
2023-03-24T01:08:03.955Z,0.70
2023-03-24T01:13:07.602Z,0.60
2023-03-24T01:18:12.824Z,0.80
2023-03-24T01:23:21.008Z,0.70
2023-03-24T01:28:27.204Z,0.43
2023-03-24T01:33:30.987Z,0.70
2023-03-24T01:38:36.622Z,0.80
2023-03-24T01:43:40.375Z,0.80
2023-03-24T01:48:48.214Z,0.80
2023-03-24T01:53:56.637Z,1.00
2023-03-24T01:59:03.645Z,0.80
2023-03-24T02:04:17.693Z,0.80
2023-03-24T02:09:22.836Z,0.90
2023-03-24T02:14:26.616Z,0.97
2023-03-24T02:20:09.755Z,0.90
2023-03-24T02:25:51.625Z,1.00
2023-03-24T02:31:24.215Z,1.03
2023-03-24T02:37:05.328Z,0.93
2023-03-24T02:42:22.170Z,0.80
2023-03-24T02:47:32.243Z,0.90
2023-03-24T02:52:43.095Z,0.80
2023-03-24T02:57:53.240Z,1.20
2023-03-24T03:03:26.092Z,0.97
2023-03-24T03:08:33.886Z,0.70
2023-03-24T03:13:41.774Z,1.00
2023-03-24T03:18:50.177Z,0.70
2023-03-24T03:23:59.636Z,0.80
2023-03-24T03:29:13.063Z,0.80
2023-03-24T03:34:24.379Z,0.80
2023-03-24T03:39:31.278Z,0.70
2023-03-24T03:44:38.658Z,0.80
2023-03-24T03:49:42.435Z,0.80
2023-03-24T03:54:46.234Z,0.70
2023-03-24T03:59:51.176Z,0.80
2023-03-24T04:05:14.074Z,0.70
2023-03-24T04:10:31.157Z,0.90
2023-03-24T04:15:47.193Z,0.60
2023-03-24T04:21:34.389Z,0.60
2023-03-24T04:26:49.695Z,0.70
2023-03-24T04:32:02.310Z,0.60
2023-03-24T04:37:09.154Z,0.70
2023-03-24T04:42:23.084Z,0.50
2023-03-24T04:47:32.881Z,0.63
2023-03-24T04:52:47.651Z,0.40
2023-03-24T04:57:53.485Z,0.60
2023-03-24T05:02:58.284Z,0.40
2023-03-24T05:08:03.712Z,0.40
2023-03-24T05:13:09.151Z,0.70
2023-03-24T05:18:31.646Z,0.43
2023-03-24T05:23:34.934Z,0.50
2023-03-24T05:28:38.087Z,0.30
2023-03-24T05:33:43.109Z,0.20
2023-03-24T05:38:51.013Z,0.20
2023-03-24T05:43:54.619Z,0.30
2023-03-24T05:48:59.842Z,0.40
2023-03-24T05:54:08.553Z,0.30
2023-03-24T05:59:15.450Z,0.20
2023-03-24T06:04:34.968Z,0.30
2023-03-24T06:09:50.714Z,0.33
2023-03-24T06:14:53.947Z,0.30
2023-03-24T06:20:05.672Z,0.30
2023-03-24T06:25:21.604Z,0.37
2023-03-24T06:30:38.965Z,0.30
2023-03-24T06:35:44.163Z,0.40
2023-03-24T06:40:51.558Z,0.40
2023-03-24T06:45:55.001Z,0.73
2023-03-24T06:51:01.618Z,0.30
2023-03-24T06:56:05.341Z,0.50
2023-03-24T07:01:16.240Z,0.53
2023-03-24T07:06:30.960Z,0.67
2023-03-24T07:11:43.183Z,0.60
2023-03-24T07:16:46.410Z,0.80
2023-03-24T07:22:10.318Z,0.80
2023-03-24T07:27:33.771Z,0.50
2023-03-24T07:32:39.246Z,0.73
2023-03-24T07:37:44.629Z,0.57
2023-03-24T07:42:48.209Z,0.53
2023-03-24T07:48:08.279Z,0.57
2023-03-24T07:53:18.558Z,0.43
2023-03-24T07:58:21.992Z,0.40
2023-03-24T08:03:49.214Z,0.40
2023-03-24T08:08:54.020Z,0.50
2023-03-24T08:13:58.237Z,0.60
2023-03-24T08:19:01.390Z,0.40
2023-03-24T08:24:06.782Z,0.60
2023-03-24T08:29:10.225Z,0.53
2023-03-24T08:34:13.946Z,0.63
2023-03-24T08:39:18.806Z,0.80
2023-03-24T08:44:22.192Z,0.73
2023-03-24T08:49:25.558Z,0.80
2023-03-24T08:54:30.276Z,0.90
2023-03-24T08:59:33.796Z,0.90
2023-03-24T09:04:37.479Z,0.50
2023-03-24T09:09:41.942Z,0.73
2023-03-24T09:14:49.963Z,0.70
2023-03-24T09:19:53.368Z,0.80
2023-03-24T09:24:57.867Z,0.60
2023-03-24T09:30:01.074Z,0.70
2023-03-24T09:35:04.501Z,0.63
2023-03-24T09:40:15.497Z,0.63
2023-03-24T09:45:22.876Z,0.70
2023-03-24T09:50:30.051Z,0.80
2023-03-24T09:55:40.675Z,0.80
2023-03-24T10:00:46.000Z,0.80
2023-03-24T10:05:55.511Z,0.90
2023-03-24T10:11:05.259Z,0.90
2023-03-24T10:16:14.162Z,1.00
2023-03-24T10:21:22.575Z,0.63
2023-03-24T10:26:39.176Z,0.93
2023-03-24T10:31:44.109Z,0.90
2023-03-24T10:36:47.242Z,0.83
2023-03-24T10:41:53.802Z,1.00
2023-03-24T10:47:00.689Z,1.17
2023-03-24T10:52:10.820Z,0.83
2023-03-24T10:57:19.461Z,0.80
2023-03-24T11:02:26.169Z,0.87
2023-03-24T11:07:34.194Z,0.83
2023-03-24T11:12:40.530Z,0.70
2023-03-24T11:17:44.376Z,0.70
2023-03-24T11:22:58.235Z,0.83
2023-03-24T11:28:06.834Z,0.70
2023-03-24T11:33:19.328Z,0.70
2023-03-24T11:38:31.989Z,0.83
2023-03-24T11:43:36.590Z,0.97
2023-03-24T11:48:49.898Z,0.77
2023-03-24T11:53:56.092Z,0.63
2023-03-24T11:59:07.383Z,0.60
2023-03-24T12:04:26.929Z,0.53
2023-03-24T12:09:40.189Z,0.50
2023-03-24T12:14:59.773Z,0.47
2023-03-24T12:20:19.210Z,0.70
2023-03-24T12:25:40.222Z,0.50
2023-03-24T12:30:54.182Z,0.60
2023-03-24T12:36:14.155Z,0.43
2023-03-24T12:41:44.612Z,0.80
2023-03-24T12:47:00.047Z,0.60
2023-03-24T12:52:30.461Z,0.60
2023-03-24T12:57:38.836Z,0.70
2023-03-24T13:02:49.790Z,0.63
2023-03-24T13:07:58.526Z,0.70
2023-03-24T13:13:07.626Z,0.60
2023-03-24T13:18:25.808Z,0.57
2023-03-24T13:23:40.780Z,0.77
2023-03-24T13:28:52.486Z,0.60
2023-03-24T13:33:58.572Z,0.60
2023-03-24T13:39:06.563Z,0.70
2023-03-24T13:44:17.481Z,0.60
2023-03-24T13:49:22.524Z,0.60
2023-03-24T13:54:28.401Z,0.80
2023-03-24T13:59:33.227Z,0.70
2023-03-24T14:04:49.454Z,0.80
2023-03-24T14:09:59.965Z,0.70
2023-03-24T14:15:18.203Z,0.60
2023-03-24T14:20:35.822Z,0.93
2023-03-24T14:25:39.119Z,0.50
2023-03-24T14:31:04.816Z,0.50
2023-03-24T14:36:14.436Z,0.30
2023-03-24T14:41:27.686Z,0.20
2023-03-24T14:46:43.059Z,0.37
2023-03-24T14:51:53.777Z,0.30
2023-03-24T14:56:57.629Z,0.37
2023-03-24T15:02:06.871Z,0.30
2023-03-24T15:07:15.038Z,0.50
2023-03-24T15:12:18.236Z,0.50
2023-03-24T15:17:24.408Z,0.53
2023-03-24T15:22:29.295Z,0.40
2023-03-24T15:27:34.589Z,0.60
2023-03-24T15:32:40.206Z,0.40
2023-03-24T15:37:49.001Z,0.40
2023-03-24T15:42:52.945Z,0.40
2023-03-24T15:47:57.101Z,0.53
2023-03-24T15:53:03.813Z,0.60
2023-03-24T15:58:22.820Z,0.17
2023-03-24T16:03:27.241Z,0.70
2023-03-24T16:08:38.900Z,0.27
2023-03-24T16:13:44.869Z,0.63
2023-03-24T16:18:49.314Z,0.40
2023-03-24T16:23:55.691Z,0.30
2023-03-24T16:29:04.438Z,0.20
2023-03-24T16:34:07.822Z,0.50
2023-03-24T16:39:17.173Z,0.43
2023-03-24T16:44:20.831Z,0.20
2023-03-24T16:49:24.561Z,0.20
2023-03-24T16:54:29.600Z,0.20
2023-03-24T16:59:33.197Z,0.20
2023-03-24T17:04:39.520Z,0.20
2023-03-24T17:09:46.203Z,0.30
2023-03-24T17:14:52.447Z,0.20
2023-03-24T17:19:57.486Z,0.30
2023-03-24T17:25:02.118Z,0.20
2023-03-24T17:30:06.329Z,0.20
2023-03-24T17:35:11.955Z,0.33
2023-03-24T17:40:18.402Z,0.10
2023-03-24T17:45:22.089Z,0.30
2023-03-24T17:50:25.476Z,0.20
2023-03-24T17:55:30.184Z,0.60
2023-03-24T18:00:33.287Z,0.63
2023-03-24T18:05:36.688Z,0.50
2023-03-24T18:10:41.558Z,0.50
2023-03-24T18:15:45.291Z,0.60
2023-03-24T18:20:49.137Z,0.80
2023-03-24T18:25:59.953Z,0.63
2023-03-24T18:31:03.370Z,0.50
2023-03-24T18:36:07.837Z,0.50
2023-03-24T18:41:14.089Z,0.80
2023-03-24T18:46:20.220Z,1.17
2023-03-24T18:51:25.140Z,1.10
2023-03-24T18:56:29.853Z,0.63
2023-03-24T19:01:35.802Z,0.90
2023-03-24T19:06:42.512Z,0.50
2023-03-24T19:11:47.802Z,0.70
2023-03-24T19:16:51.392Z,0.70
2023-03-24T19:21:54.551Z,0.53
2023-03-24T19:26:59.126Z,0.30
2023-03-24T19:32:02.429Z,0.50
2023-03-24T19:37:10.130Z,0.50
2023-03-24T19:42:15.455Z,0.47
2023-03-24T19:47:18.573Z,0.60
2023-03-24T19:52:21.999Z,0.40
2023-03-24T19:57:30.466Z,0.50
2023-03-24T20:02:34.067Z,0.40
2023-03-24T20:07:37.897Z,0.40
2023-03-24T20:12:44.361Z,0.30
2023-03-24T20:17:47.680Z,0.37
2023-03-24T20:22:50.981Z,0.30
2023-03-24T20:27:55.458Z,0.70
2023-03-24T20:32:58.803Z,0.50
2023-03-24T20:38:01.946Z,0.20
2023-03-24T20:43:06.945Z,0.47
2023-03-24T20:48:10.628Z,0.37
2023-03-24T20:53:13.834Z,0.30
2023-03-24T20:58:18.574Z,0.50
2023-03-24T21:03:22.358Z,0.50
2023-03-24T21:08:25.674Z,0.53
2023-03-24T21:13:37.207Z,0.63
2023-03-24T21:18:43.604Z,0.30
2023-03-24T21:23:46.727Z,0.50
2023-03-24T21:28:52.577Z,0.50
2023-03-24T21:33:57.831Z,0.30
2023-03-24T21:39:01.032Z,0.40
2023-03-24T21:44:06.781Z,0.40
2023-03-24T21:49:10.913Z,0.40
2023-03-24T21:54:14.862Z,0.33
2023-03-24T21:59:20.048Z,0.30
2023-03-24T22:04:24.736Z,0.30
2023-03-24T22:09:28.053Z,0.20
2023-03-24T22:14:32.974Z,0.30
2023-03-24T22:19:36.152Z,0.27
2023-03-24T22:24:39.611Z,0.20
2023-03-24T22:29:44.083Z,0.30
2023-03-24T22:34:47.492Z,0.30
2023-03-24T22:39:50.869Z,0.20
2023-03-24T22:44:55.669Z,0.20
2023-03-24T22:49:59.096Z,0.30
2023-03-24T22:55:02.607Z,0.10
2023-03-24T23:00:08.924Z,0.20
2023-03-24T23:05:12.081Z,0.20
2023-03-24T23:10:15.527Z,0.20
2023-03-24T23:15:23.126Z,0.20
2023-03-24T23:20:27.996Z,0.13
2023-03-24T23:25:33.347Z,0.43
2023-03-24T23:30:38.551Z,0.23
2023-03-24T23:35:42.878Z,0.20
2023-03-24T23:40:46.638Z,0.20
2023-03-24T23:45:55.890Z,0.10
2023-03-24T23:51:00.093Z,0.20
2023-03-24T23:56:07.182Z,0.27
